Impacts TAF Board
For situational awareness. Not to be used for flight planning purposes.
IDs:

KSEA - Seattle-Tacoma Intl, WA, US

Issued at 0855 UTC 07 Dec 2022
Updated at 0917 UTC 07 Dec 2022
Potential Impact None Slight Moderate High
Time0853Z 07/10Z 07/11Z 07/12Z 07/13Z 07/14Z 07/15Z 07/16Z 07/17Z 07/18Z 07/19Z 07/20Z 07/21Z 07/22Z>>
Type OBS PRVL
  [TEMP]  
PRVL
  [TEMP]  
PRVL PRVL PRVL PRVL PRVL PRVL PRVL PRVL PRVL PRVL PRVL
VIS 10 >6
  [>6]  
>6
  [>6]  
>6 >6 >6 >6 >6 >6 >6 >6 >6 >6 >6
CIG 22 20
  [20]  
20
  [20]  
20 20 20 20 20 20 22 22 22 22 40
Cover OVC OVC
  [OVC]  
OVC
  [OVC]  
OVC OVC OVC OVC OVC OVC OVC OVC OVC OVC OVC
FltCat MVFR MVFR
  [MVFR]  
MVFR
  [MVFR]  
MVFR MVFR MVFR MVFR MVFR MVFR MVFR MVFR MVFR MVFR VFR
WX -- VCSH
  [-RA]  
VCSH
  [-RA]  
VCSH VCSH VCSH VCSH VCSH VCSH -- -- -- -- --
WDir 200 190
[190]
190
[190]
190 190 190 190 190 190 180 180 180 180 160
WSpd 4 6
  [6]  
6
  [6]  
6 6 6 6 6 6 8 8 8 8 8
WGst -- --
  [--]  
--
  [--]  
-- -- -- -- -- -- -- -- -- -- --
WSHgt -- --
[--]
--
[--]
-- -- -- -- -- -- -- -- -- -- --
WSDir -- --
[--]
--
[--]
-- -- -- -- -- -- -- -- -- -- --
WSSpd -- --
[--]
--
[--]
-- -- -- -- -- -- -- -- -- -- --
Raw TAF
KSEA 070855Z 0709/0812 19006KT P6SM VCSH BKN020 OVC035
  TEMPO 0709/0712 -RA OVC020
  FM071800 18008KT P6SM SCT012 BKN022 OVC035
  FM072200 16008KT P6SM SCT025 BKN040 OVC060
  FM080800 16014KT P6SM -RA BKN020 OVC040


Raw METAR
KSEA 070853Z 20004KT 10SM BKN022 OVC043 05/03 A3017 RMK AO2 SLP224 60002 T00500028 58000
KSEA 070844Z 19005KT 10SM BKN022 BKN035 OVC048 05/03 A3016 RMK AO2 T00500028
KSEA 070807Z 18008KT 10SM FEW022 BKN043 OVC050 04/03 A3017 RMK AO2 T00440028
KSEA 070753Z 18008KT 10SM BKN020 OVC045 05/03 A3017 RMK AO2 SLP226 T00500028 400560022
KSEA 070730Z 17008KT 10SM BKN018 OVC043 05/03 A3017 RMK AO2 T00500028
KSEA 070653Z 18007KT 10SM BKN012 OVC044 05/03 A3017 RMK AO2 RAE35 SLP227 P0002 T00500033

METAR Board
Radar Display
Forecast Discussion
For situational awareness. Not to be used for flight planning purposes.